sensor_id;sensor_type;location;lat;lon;timestamp;pressure;altitude;pressure_sealevel;temperature;humidity
43480;BME280;29067;35.492;-97.520;2022-10-13T00:01:08;97178.51;;;26.78;17.98
43480;BME280;29067;35.492;-97.520;2022-10-13T00:03:37;97181.95;;;25.94;18.14
43480;BME280;29067;35.492;-97.520;2022-10-13T00:06:07;97176.54;;;24.19;18.92
43480;BME280;29067;35.492;-97.520;2022-10-13T00:08:36;97181.57;;;23.06;19.40
43480;BME280;29067;35.492;-97.520;2022-10-13T00:11:10;97187.53;;;23.13;20.57
43480;BME280;29067;35.492;-97.520;2022-10-13T00:13:38;97196.43;;;22.94;19.83
43480;BME280;29067;35.492;-97.520;2022-10-13T00:16:08;97199.77;;;23.38;20.20
43480;BME280;29067;35.492;-97.520;2022-10-13T00:18:36;97201.26;;;23.24;20.58
43480;BME280;29067;35.492;-97.520;2022-10-13T00:21:07;97201.45;;;22.49;21.60
43480;BME280;29067;35.492;-97.520;2022-10-13T00:23:36;97207.38;;;23.48;20.89
43480;BME280;29067;35.492;-97.520;2022-10-13T00:26:05;97213.52;;;22.47;21.99
43480;BME280;29067;35.492;-97.520;2022-10-13T00:28:33;97226.51;;;20.73;22.86
43480;BME280;29067;35.492;-97.520;2022-10-13T00:31:01;97235.92;;;20.55;23.84
43480;BME280;29067;35.492;-97.520;2022-10-13T00:33:28;97237.45;;;19.98;24.10
43480;BME280;29067;35.492;-97.520;2022-10-13T00:35:56;97238.15;;;21.93;24.27
43480;BME280;29067;35.492;-97.520;2022-10-13T00:38:24;97244.33;;;21.27;23.98
43480;BME280;29067;35.492;-97.520;2022-10-13T00:40:53;97250.14;;;21.50;24.46
43480;BME280;29067;35.492;-97.520;2022-10-13T00:43:23;97251.48;;;21.49;24.27
43480;BME280;29067;35.492;-97.520;2022-10-13T00:45:52;97253.21;;;22.19;24.72
43480;BME280;29067;35.492;-97.520;2022-10-13T00:48:24;97255.96;;;20.31;24.59
43480;BME280;29067;35.492;-97.520;2022-10-13T00:50:53;97256.96;;;19.42;25.78
43480;BME280;29067;35.492;-97.520;2022-10-13T00:53:24;97263.39;;;18.55;26.39
43480;BME280;29067;35.492;-97.520;2022-10-13T00:55:55;97270.75;;;18.32;26.19
43480;BME280;29067;35.492;-97.520;2022-10-13T00:58:25;97276.26;;;18.95;26.24
43480;BME280;29067;35.492;-97.520;2022-10-13T01:00:53;97281.79;;;19.10;26.26
43480;BME280;29067;35.492;-97.520;2022-10-13T01:03:21;97285.89;;;18.49;27.14
43480;BME280;29067;35.492;-97.520;2022-10-13T01:05:52;97285.09;;;19.47;26.00
43480;BME280;29067;35.492;-97.520;2022-10-13T01:08:22;97286.58;;;19.90;25.82
43480;BME280;29067;35.492;-97.520;2022-10-13T01:10:57;97295.57;;;18.69;26.72
43480;BME280;29067;35.492;-97.520;2022-10-13T01:13:35;97299.39;;;18.91;26.76
43480;BME280;29067;35.492;-97.520;2022-10-13T01:16:12;97302.70;;;20.50;26.37
43480;BME280;29067;35.492;-97.520;2022-10-13T01:18:45;97308.24;;;20.41;25.47
43480;BME280;29067;35.492;-97.520;2022-10-13T01:21:22;97314.08;;;19.77;26.52
43480;BME280;29067;35.492;-97.520;2022-10-13T01:25:13;97317.81;;;18.98;26.77
43480;BME280;29067;35.492;-97.520;2022-10-13T01:27:56;97315.28;;;19.76;26.33
43480;BME280;29067;35.492;-97.520;2022-10-13T01:30:28;97321.69;;;19.03;27.05
43480;BME280;29067;35.492;-97.520;2022-10-13T01:33:08;97328.98;;;19.05;27.29
43480;BME280;29067;35.492;-97.520;2022-10-13T01:36:05;97334.64;;;18.41;27.32
43480;BME280;29067;35.492;-97.520;2022-10-13T01:38:44;97335.66;;;18.90;27.68
43480;BME280;29067;35.492;-97.520;2022-10-13T01:41:19;97335.51;;;18.98;27.55
43480;BME280;29067;35.492;-97.520;2022-10-13T01:43:54;97339.64;;;18.62;27.92
43480;BME280;29067;35.492;-97.520;2022-10-13T01:46:26;97344.89;;;19.36;27.23
43480;BME280;29067;35.492;-97.520;2022-10-13T01:48:58;97347.53;;;19.85;27.00
43480;BME280;29067;35.492;-97.520;2022-10-13T01:51:29;97350.81;;;19.43;26.81
43480;BME280;29067;35.492;-97.520;2022-10-13T01:53:58;97359.83;;;18.20;28.44
43480;BME280;29067;35.492;-97.520;2022-10-13T01:56:26;97358.92;;;19.01;27.54
43480;BME280;29067;35.492;-97.520;2022-10-13T01:58:56;97364.22;;;18.28;28.17
43480;BME280;29067;35.492;-97.520;2022-10-13T02:01:33;97363.94;;;18.64;28.02
43480;BME280;29067;35.492;-97.520;2022-10-13T02:04:13;97361.58;;;18.94;27.74
43480;BME280;29067;35.492;-97.520;2022-10-13T02:06:46;97364.15;;;18.33;28.17
43480;BME280;29067;35.492;-97.520;2022-10-13T02:09:23;97370.42;;;17.89;28.72
43480;BME280;29067;35.492;-97.520;2022-10-13T02:12:00;97373.06;;;17.54;29.09
43480;BME280;29067;35.492;-97.520;2022-10-13T02:14:32;97380.74;;;17.91;29.75
43480;BME280;29067;35.492;-97.520;2022-10-13T02:17:04;97380.47;;;17.00;30.38
43480;BME280;29067;35.492;-97.520;2022-10-13T02:19:35;97374.87;;;18.65;28.74
43480;BME280;29067;35.492;-97.520;2022-10-13T02:22:05;97378.39;;;19.21;28.59
43480;BME280;29067;35.492;-97.520;2022-10-13T02:24:35;97381.35;;;18.54;29.60
43480;BME280;29067;35.492;-97.520;2022-10-13T02:27:04;97387.59;;;17.48;30.00
43480;BME280;29067;35.492;-97.520;2022-10-13T02:29:33;97383.32;;;16.65;31.43
43480;BME280;29067;35.492;-97.520;2022-10-13T02:32:01;97378.73;;;17.34;30.16
43480;BME280;29067;35.492;-97.520;2022-10-13T02:34:29;97378.06;;;17.79;29.50
43480;BME280;29067;35.492;-97.520;2022-10-13T02:36:57;97381.05;;;17.52;30.86
43480;BME280;29067;35.492;-97.520;2022-10-13T02:39:25;97380.68;;;16.97;31.01
43480;BME280;29067;35.492;-97.520;2022-10-13T02:41:52;97384.29;;;17.73;30.36
43480;BME280;29067;35.492;-97.520;2022-10-13T02:44:20;97386.37;;;17.59;31.06
43480;BME280;29067;35.492;-97.520;2022-10-13T02:46:48;97388.58;;;17.59;30.19
43480;BME280;29067;35.492;-97.520;2022-10-13T02:49:16;97386.75;;;17.31;30.30
43480;BME280;29067;35.492;-97.520;2022-10-13T02:51:44;97391.07;;;16.03;32.08
43480;BME280;29067;35.492;-97.520;2022-10-13T02:54:12;97386.45;;;16.03;32.07
43480;BME280;29067;35.492;-97.520;2022-10-13T02:56:40;97389.49;;;16.74;31.23
43480;BME280;29067;35.492;-97.520;2022-10-13T02:59:07;97388.72;;;16.96;31.75
43480;BME280;29067;35.492;-97.520;2022-10-13T03:01:35;97387.95;;;15.66;32.55
43480;BME280;29067;35.492;-97.520;2022-10-13T03:04:03;97393.38;;;14.97;32.99
43480;BME280;29067;35.492;-97.520;2022-10-13T03:06:31;97396.67;;;15.65;32.06
43480;BME280;29067;35.492;-97.520;2022-10-13T03:08:58;97398.49;;;16.32;31.49
43480;BME280;29067;35.492;-97.520;2022-10-13T03:11:26;97399.89;;;15.14;30.92
43480;BME280;29067;35.492;-97.520;2022-10-13T03:13:54;97399.75;;;16.05;31.49
43480;BME280;29067;35.492;-97.520;2022-10-13T03:16:22;97402.38;;;15.30;30.97
43480;BME280;29067;35.492;-97.520;2022-10-13T03:18:50;97402.03;;;16.08;31.14
43480;BME280;29067;35.492;-97.520;2022-10-13T03:21:18;97407.11;;;14.65;31.44
43480;BME280;29067;35.492;-97.520;2022-10-13T03:23:46;97415.53;;;15.49;31.66
43480;BME280;29067;35.492;-97.520;2022-10-13T03:26:14;97421.47;;;15.35;32.14
43480;BME280;29067;35.492;-97.520;2022-10-13T03:28:41;97422.48;;;14.90;31.95
43480;BME280;29067;35.492;-97.520;2022-10-13T03:31:11;97422.01;;;15.13;32.36
43480;BME280;29067;35.492;-97.520;2022-10-13T03:33:39;97425.12;;;14.74;32.10
43480;BME280;29067;35.492;-97.520;2022-10-13T03:36:09;97427.75;;;14.93;32.50
43480;BME280;29067;35.492;-97.520;2022-10-13T03:38:37;97419.94;;;16.14;30.81
43480;BME280;29067;35.492;-97.520;2022-10-13T03:41:08;97420.66;;;15.37;32.41
43480;BME280;29067;35.492;-97.520;2022-10-13T03:43:37;97428.06;;;14.74;32.81
43480;BME280;29067;35.492;-97.520;2022-10-13T03:46:06;97429.12;;;14.42;32.60
43480;BME280;29067;35.492;-97.520;2022-10-13T03:48:36;97424.22;;;15.32;31.31
43480;BME280;29067;35.492;-97.520;2022-10-13T03:51:05;97427.51;;;14.40;31.49
43480;BME280;29067;35.492;-97.520;2022-10-13T03:53:34;97427.81;;;14.67;31.52
43480;BME280;29067;35.492;-97.520;2022-10-13T03:56:03;97424.95;;;15.22;31.23
43480;BME280;29067;35.492;-97.520;2022-10-13T03:58:30;97426.95;;;15.45;31.56
43480;BME280;29067;35.492;-97.520;2022-10-13T04:01:03;97425.83;;;14.36;31.90
43480;BME280;29067;35.492;-97.520;2022-10-13T04:03:32;97428.75;;;14.29;32.05
43480;BME280;29067;35.492;-97.520;2022-10-13T04:06:01;97435.16;;;15.98;31.25
43480;BME280;29067;35.492;-97.520;2022-10-13T04:08:31;97442.85;;;15.80;30.90
43480;BME280;29067;35.492;-97.520;2022-10-13T04:11:00;97448.43;;;15.84;30.61
43480;BME280;29067;35.492;-97.520;2022-10-13T04:13:28;97449.06;;;16.39;30.64
43480;BME280;29067;35.492;-97.520;2022-10-13T04:16:00;97454.91;;;15.61;30.67
43480;BME280;29067;35.492;-97.520;2022-10-13T04:18:28;97458.84;;;15.11;31.59
43480;BME280;29067;35.492;-97.520;2022-10-13T04:20:56;97465.63;;;14.79;32.35
43480;BME280;29067;35.492;-97.520;2022-10-13T04:23:24;97476.12;;;13.95;32.70
43480;BME280;29067;35.492;-97.520;2022-10-13T04:25:51;97477.93;;;13.82;33.03
43480;BME280;29067;35.492;-97.520;2022-10-13T04:28:19;97479.52;;;14.36;32.82
43480;BME280;29067;35.492;-97.520;2022-10-13T04:30:47;97484.44;;;15.27;32.43
43480;BME280;29067;35.492;-97.520;2022-10-13T04:33:15;97506.10;;;15.25;32.81
43480;BME280;29067;35.492;-97.520;2022-10-13T04:35:42;97525.32;;;13.32;34.34
43480;BME280;29067;35.492;-97.520;2022-10-13T04:38:10;97521.94;;;14.94;32.64
43480;BME280;29067;35.492;-97.520;2022-10-13T04:40:38;97514.64;;;14.89;32.67
43480;BME280;29067;35.492;-97.520;2022-10-13T04:43:06;97511.52;;;15.97;30.85
43480;BME280;29067;35.492;-97.520;2022-10-13T04:45:34;97511.23;;;16.14;30.42
43480;BME280;29067;35.492;-97.520;2022-10-13T04:48:01;97510.32;;;16.28;29.81
43480;BME280;29067;35.492;-97.520;2022-10-13T04:50:29;97514.42;;;16.26;28.93
43480;BME280;29067;35.492;-97.520;2022-10-13T04:52:58;97519.41;;;15.59;27.97
43480;BME280;29067;35.492;-97.520;2022-10-13T04:55:26;97523.12;;;16.52;28.09
43480;BME280;29067;35.492;-97.520;2022-10-13T04:57:53;97528.29;;;16.64;27.41
43480;BME280;29067;35.492;-97.520;2022-10-13T05:00:21;97535.35;;;16.33;27.50
43480;BME280;29067;35.492;-97.520;2022-10-13T05:02:49;97537.72;;;16.66;27.37
43480;BME280;29067;35.492;-97.520;2022-10-13T05:05:17;97537.49;;;16.68;27.05
43480;BME280;29067;35.492;-97.520;2022-10-13T05:07:44;97540.86;;;16.70;27.26
43480;BME280;29067;35.492;-97.520;2022-10-13T05:10:12;97538.63;;;16.47;27.84
43480;BME280;29067;35.492;-97.520;2022-10-13T05:12:40;97540.11;;;15.84;27.68
43480;BME280;29067;35.492;-97.520;2022-10-13T05:15:08;97541.94;;;16.36;27.76
43480;BME280;29067;35.492;-97.520;2022-10-13T05:17:36;97539.36;;;16.89;27.47
43480;BME280;29067;35.492;-97.520;2022-10-13T05:20:04;97543.34;;;15.92;27.26
43480;BME280;29067;35.492;-97.520;2022-10-13T05:22:32;97540.69;;;16.33;27.21
43480;BME280;29067;35.492;-97.520;2022-10-13T05:25:00;97539.60;;;15.92;27.59
43480;BME280;29067;35.492;-97.520;2022-10-13T05:27:28;97537.15;;;16.62;27.13
43480;BME280;29067;35.492;-97.520;2022-10-13T05:29:56;97535.00;;;17.21;26.70
43480;BME280;29067;35.492;-97.520;2022-10-13T05:32:23;97530.44;;;16.58;26.05
43480;BME280;29067;35.492;-97.520;2022-10-13T05:34:51;97525.04;;;17.16;26.77
43480;BME280;29067;35.492;-97.520;2022-10-13T05:37:19;97527.92;;;14.75;28.22
43480;BME280;29067;35.492;-97.520;2022-10-13T05:39:47;97529.46;;;16.87;27.14
43480;BME280;29067;35.492;-97.520;2022-10-13T05:42:14;97530.61;;;16.57;28.14
43480;BME280;29067;35.492;-97.520;2022-10-13T05:44:42;97532.54;;;15.87;27.78
43480;BME280;29067;35.492;-97.520;2022-10-13T05:47:10;97531.35;;;15.45;27.81
43480;BME280;29067;35.492;-97.520;2022-10-13T05:49:38;97531.18;;;15.35;28.19
43480;BME280;29067;35.492;-97.520;2022-10-13T05:52:09;97532.33;;;15.53;28.17
43480;BME280;29067;35.492;-97.520;2022-10-13T05:54:40;97526.43;;;15.73;28.00
43480;BME280;29067;35.492;-97.520;2022-10-13T05:57:13;97529.83;;;15.79;28.03
43480;BME280;29067;35.492;-97.520;2022-10-13T05:59:44;97536.34;;;14.96;28.69
43480;BME280;29067;35.492;-97.520;2022-10-13T06:02:15;97535.46;;;14.79;29.27
43480;BME280;29067;35.492;-97.520;2022-10-13T06:04:46;97535.58;;;15.23;29.10
43480;BME280;29067;35.492;-97.520;2022-10-13T06:07:16;97532.68;;;15.28;29.26
43480;BME280;29067;35.492;-97.520;2022-10-13T06:09:44;97532.59;;;14.27;30.01
43480;BME280;29067;35.492;-97.520;2022-10-13T06:12:12;97530.95;;;14.33;30.41
43480;BME280;29067;35.492;-97.520;2022-10-13T06:14:40;97531.68;;;13.59;31.00
43480;BME280;29067;35.492;-97.520;2022-10-13T06:17:07;97535.97;;;13.45;32.09
43480;BME280;29067;35.492;-97.520;2022-10-13T06:19:35;97530.65;;;13.00;31.93
43480;BME280;29067;35.492;-97.520;2022-10-13T06:22:03;97533.47;;;13.14;32.55
43480;BME280;29067;35.492;-97.520;2022-10-13T06:24:31;97535.94;;;14.64;31.47
43480;BME280;29067;35.492;-97.520;2022-10-13T06:26:59;97546.73;;;14.06;31.20
43480;BME280;29067;35.492;-97.520;2022-10-13T06:29:27;97550.85;;;14.67;31.27
43480;BME280;29067;35.492;-97.520;2022-10-13T06:31:54;97556.24;;;14.96;30.70
43480;BME280;29067;35.492;-97.520;2022-10-13T06:34:22;97558.27;;;15.19;30.58
43480;BME280;29067;35.492;-97.520;2022-10-13T06:36:50;97567.32;;;14.69;31.09
43480;BME280;29067;35.492;-97.520;2022-10-13T06:39:17;97572.05;;;15.08;30.09
43480;BME280;29067;35.492;-97.520;2022-10-13T06:41:45;97568.47;;;14.55;30.57
43480;BME280;29067;35.492;-97.520;2022-10-13T06:44:13;97571.10;;;14.53;30.69
43480;BME280;29067;35.492;-97.520;2022-10-13T06:46:41;97576.04;;;15.12;30.08
43480;BME280;29067;35.492;-97.520;2022-10-13T06:49:08;97582.13;;;15.82;30.52
43480;BME280;29067;35.492;-97.520;2022-10-13T06:51:37;97583.56;;;14.44;31.14
43480;BME280;29067;35.492;-97.520;2022-10-13T06:54:06;97589.67;;;14.03;30.98
43480;BME280;29067;35.492;-97.520;2022-10-13T06:56:34;97596.67;;;14.84;30.77
43480;BME280;29067;35.492;-97.520;2022-10-13T06:59:02;97602.65;;;14.49;30.65
43480;BME280;29067;35.492;-97.520;2022-10-13T07:01:30;97605.97;;;14.90;30.30
43480;BME280;29067;35.492;-97.520;2022-10-13T07:03:57;97606.07;;;15.63;29.87
43480;BME280;29067;35.492;-97.520;2022-10-13T07:06:25;97604.03;;;16.05;29.83
43480;BME280;29067;35.492;-97.520;2022-10-13T07:08:53;97600.64;;;14.48;30.60
43480;BME280;29067;35.492;-97.520;2022-10-13T07:11:21;97598.88;;;13.79;31.32
43480;BME280;29067;35.492;-97.520;2022-10-13T07:13:49;97600.79;;;14.17;31.77
43480;BME280;29067;35.492;-97.520;2022-10-13T07:16:16;97598.28;;;14.36;31.58
43480;BME280;29067;35.492;-97.520;2022-10-13T07:18:46;97600.13;;;14.74;31.21
43480;BME280;29067;35.492;-97.520;2022-10-13T07:21:14;97602.44;;;13.05;32.05
43480;BME280;29067;35.492;-97.520;2022-10-13T07:23:42;97603.06;;;13.07;32.59
43480;BME280;29067;35.492;-97.520;2022-10-13T07:26:12;97607.13;;;14.29;32.01
43480;BME280;29067;35.492;-97.520;2022-10-13T07:28:41;97611.95;;;14.76;31.58
43480;BME280;29067;35.492;-97.520;2022-10-13T07:31:11;97611.69;;;14.46;31.56
43480;BME280;29067;35.492;-97.520;2022-10-13T07:33:41;97610.77;;;14.46;31.41
43480;BME280;29067;35.492;-97.520;2022-10-13T07:36:10;97614.72;;;13.96;31.87
43480;BME280;29067;35.492;-97.520;2022-10-13T07:38:38;97616.08;;;13.89;32.35
43480;BME280;29067;35.492;-97.520;2022-10-13T07:41:08;97614.98;;;13.67;32.34
43480;BME280;29067;35.492;-97.520;2022-10-13T07:43:36;97618.40;;;13.78;32.07
43480;BME280;29067;35.492;-97.520;2022-10-13T07:46:05;97615.52;;;13.87;32.09
43480;BME280;29067;35.492;-97.520;2022-10-13T07:48:34;97606.03;;;13.94;31.78
43480;BME280;29067;35.492;-97.520;2022-10-13T07:51:04;97604.26;;;14.19;31.57
43480;BME280;29067;35.492;-97.520;2022-10-13T07:53:32;97610.00;;;14.00;31.71
43480;BME280;29067;35.492;-97.520;2022-10-13T07:56:01;97611.63;;;13.62;32.51
43480;BME280;29067;35.492;-97.520;2022-10-13T07:58:29;97614.08;;;13.75;32.20
43480;BME280;29067;35.492;-97.520;2022-10-13T08:00:59;97616.18;;;13.44;32.26
43480;BME280;29067;35.492;-97.520;2022-10-13T08:03:27;97616.37;;;13.56;32.42
43480;BME280;29067;35.492;-97.520;2022-10-13T08:05:58;97609.05;;;14.12;32.19
43480;BME280;29067;35.492;-97.520;2022-10-13T08:08:26;97607.92;;;14.11;32.20
43480;BME280;29067;35.492;-97.520;2022-10-13T08:10:59;97603.84;;;13.95;31.59
43480;BME280;29067;35.492;-97.520;2022-10-13T08:13:27;97603.80;;;14.12;32.14
43480;BME280;29067;35.492;-97.520;2022-10-13T08:15:58;97608.61;;;14.75;31.41
43480;BME280;29067;35.492;-97.520;2022-10-13T08:18:26;97611.46;;;13.95;32.01
43480;BME280;29067;35.492;-97.520;2022-10-13T08:20:54;97610.38;;;13.70;32.14
43480;BME280;29067;35.492;-97.520;2022-10-13T08:23:22;97610.20;;;14.28;32.10
43480;BME280;29067;35.492;-97.520;2022-10-13T08:25:50;97607.37;;;14.10;32.56
43480;BME280;29067;35.492;-97.520;2022-10-13T08:28:20;97607.82;;;14.29;31.94
43480;BME280;29067;35.492;-97.520;2022-10-13T08:30:48;97609.54;;;13.18;32.25
43480;BME280;29067;35.492;-97.520;2022-10-13T08:33:16;97609.68;;;13.20;32.74
43480;BME280;29067;35.492;-97.520;2022-10-13T08:35:44;97610.03;;;12.99;32.82
43480;BME280;29067;35.492;-97.520;2022-10-13T08:38:12;97607.23;;;13.46;32.40
43480;BME280;29067;35.492;-97.520;2022-10-13T08:40:45;97605.57;;;12.66;32.93
43480;BME280;29067;35.492;-97.520;2022-10-13T08:43:15;97600.80;;;13.38;32.70
43480;BME280;29067;35.492;-97.520;2022-10-13T08:45:44;97595.75;;;12.88;33.00
43480;BME280;29067;35.492;-97.520;2022-10-13T08:48:16;97595.40;;;13.94;32.57
43480;BME280;29067;35.492;-97.520;2022-10-13T08:50:48;97596.38;;;13.14;32.65
43480;BME280;29067;35.492;-97.520;2022-10-13T08:53:23;97598.70;;;12.06;33.75
43480;BME280;29067;35.492;-97.520;2022-10-13T08:55:56;97595.69;;;12.58;33.73
43480;BME280;29067;35.492;-97.520;2022-10-13T08:58:27;97596.44;;;12.28;33.77
43480;BME280;29067;35.492;-97.520;2022-10-13T09:01:02;97596.00;;;12.48;33.37
43480;BME280;29067;35.492;-97.520;2022-10-13T09:03:44;97601.13;;;13.11;33.79
43480;BME280;29067;35.492;-97.520;2022-10-13T09:06:16;97596.95;;;13.46;33.95
43480;BME280;29067;35.492;-97.520;2022-10-13T09:08:49;97596.22;;;11.95;34.09
43480;BME280;29067;35.492;-97.520;2022-10-13T09:11:20;97594.17;;;12.81;33.90
43480;BME280;29067;35.492;-97.520;2022-10-13T09:13:48;97593.97;;;11.62;34.67
43480;BME280;29067;35.492;-97.520;2022-10-13T09:16:27;97596.40;;;12.03;34.48
43480;BME280;29067;35.492;-97.520;2022-10-13T09:19:01;97594.69;;;12.48;34.31
43480;BME280;29067;35.492;-97.520;2022-10-13T09:21:38;97595.09;;;12.31;34.01
43480;BME280;29067;35.492;-97.520;2022-10-13T09:24:10;97595.43;;;12.78;33.82
43480;BME280;29067;35.492;-97.520;2022-10-13T09:26:39;97594.36;;;12.14;34.63
43480;BME280;29067;35.492;-97.520;2022-10-13T09:29:09;97591.80;;;12.40;33.99
43480;BME280;29067;35.492;-97.520;2022-10-13T09:31:37;97594.92;;;11.32;34.81
43480;BME280;29067;35.492;-97.520;2022-10-13T09:34:14;97592.00;;;12.31;34.34
43480;BME280;29067;35.492;-97.520;2022-10-13T09:36:59;97590.81;;;11.31;35.36
43480;BME280;29067;35.492;-97.520;2022-10-13T09:39:28;97585.35;;;13.07;34.40
43480;BME280;29067;35.492;-97.520;2022-10-13T09:42:19;97589.31;;;13.32;33.78
43480;BME280;29067;35.492;-97.520;2022-10-13T09:44:55;97597.27;;;12.86;34.11
43480;BME280;29067;35.492;-97.520;2022-10-13T09:47:25;97599.05;;;13.10;34.07
43480;BME280;29067;35.492;-97.520;2022-10-13T09:50:00;97598.43;;;12.92;34.40
43480;BME280;29067;35.492;-97.520;2022-10-13T09:52:29;97601.47;;;12.42;34.73
43480;BME280;29067;35.492;-97.520;2022-10-13T09:54:58;97602.50;;;12.75;34.15
43480;BME280;29067;35.492;-97.520;2022-10-13T09:57:33;97602.24;;;11.86;34.52
43480;BME280;29067;35.492;-97.520;2022-10-13T10:00:11;97600.77;;;12.60;33.47
43480;BME280;29067;35.492;-97.520;2022-10-13T10:02:45;97598.03;;;12.26;34.15
43480;BME280;29067;35.492;-97.520;2022-10-13T10:05:23;97600.59;;;12.20;34.25
43480;BME280;29067;35.492;-97.520;2022-10-13T10:07:52;97604.74;;;12.09;34.48
43480;BME280;29067;35.492;-97.520;2022-10-13T10:10:29;97600.96;;;11.56;34.82
43480;BME280;29067;35.492;-97.520;2022-10-13T10:12:57;97600.24;;;12.60;34.38
43480;BME280;29067;35.492;-97.520;2022-10-13T10:15:41;97606.54;;;12.57;33.97
43480;BME280;29067;35.492;-97.520;2022-10-13T10:18:15;97609.73;;;11.17;35.38
43480;BME280;29067;35.492;-97.520;2022-10-13T10:20:54;97609.56;;;11.48;35.15
43480;BME280;29067;35.492;-97.520;2022-10-13T10:23:30;97615.52;;;10.72;35.92
43480;BME280;29067;35.492;-97.520;2022-10-13T10:26:04;97616.79;;;10.59;35.89
43480;BME280;29067;35.492;-97.520;2022-10-13T10:28:45;97611.45;;;11.64;35.08
43480;BME280;29067;35.492;-97.520;2022-10-13T10:31:24;97603.03;;;11.92;34.30
43480;BME280;29067;35.492;-97.520;2022-10-13T10:34:05;97605.60;;;12.38;34.94
43480;BME280;29067;35.492;-97.520;2022-10-13T10:36:42;97605.41;;;11.79;34.91
43480;BME280;29067;35.492;-97.520;2022-10-13T10:39:22;97611.82;;;10.57;35.99
43480;BME280;29067;35.492;-97.520;2022-10-13T10:41:58;97609.96;;;10.87;35.69
43480;BME280;29067;35.492;-97.520;2022-10-13T10:44:31;97608.90;;;11.70;35.29
43480;BME280;29067;35.492;-97.520;2022-10-13T10:47:03;97606.97;;;12.32;34.82
43480;BME280;29067;35.492;-97.520;2022-10-13T10:49:34;97606.71;;;11.85;34.64
43480;BME280;29067;35.492;-97.520;2022-10-13T10:52:08;97613.29;;;10.70;35.39
43480;BME280;29067;35.492;-97.520;2022-10-13T10:54:46;97615.94;;;11.66;35.59
43480;BME280;29067;35.492;-97.520;2022-10-13T10:57:20;97626.94;;;10.51;35.80
43480;BME280;29067;35.492;-97.520;2022-10-13T10:59:59;97633.32;;;11.54;35.51
43480;BME280;29067;35.492;-97.520;2022-10-13T11:03:06;97636.81;;;10.72;35.28
43480;BME280;29067;35.492;-97.520;2022-10-13T11:06:23;97641.11;;;11.14;35.51
43480;BME280;29067;35.492;-97.520;2022-10-13T11:08:51;97644.26;;;10.54;35.52
43480;BME280;29067;35.492;-97.520;2022-10-13T11:11:51;97643.61;;;10.40;35.91
43480;BME280;29067;35.492;-97.520;2022-10-13T11:14:25;97643.65;;;10.83;35.72
43480;BME280;29067;35.492;-97.520;2022-10-13T11:17:14;97646.05;;;10.65;35.33
43480;BME280;29067;35.492;-97.520;2022-10-13T11:19:44;97642.35;;;10.46;36.63
43480;BME280;29067;35.492;-97.520;2022-10-13T11:22:14;97643.30;;;10.20;36.45
43480;BME280;29067;35.492;-97.520;2022-10-13T11:24:48;97641.89;;;11.57;35.15
43480;BME280;29067;35.492;-97.520;2022-10-13T11:27:39;97644.68;;;12.61;34.59
43480;BME280;29067;35.492;-97.520;2022-10-13T11:30:44;97650.25;;;11.36;35.34
43480;BME280;29067;35.492;-97.520;2022-10-13T11:35:27;97656.34;;;10.75;36.86
43480;BME280;29067;35.492;-97.520;2022-10-13T11:38:07;97652.58;;;9.30;38.30
43480;BME280;29067;35.492;-97.520;2022-10-13T11:40:53;97661.28;;;9.09;38.39
43480;BME280;29067;35.492;-97.520;2022-10-13T11:43:36;97665.09;;;9.56;38.15
43480;BME280;29067;35.492;-97.520;2022-10-13T11:46:22;97663.97;;;9.63;38.26
43480;BME280;29067;35.492;-97.520;2022-10-13T11:49:13;97672.26;;;9.55;38.89
43480;BME280;29067;35.492;-97.520;2022-10-13T11:52:05;97677.91;;;10.10;38.69
43480;BME280;29067;35.492;-97.520;2022-10-13T11:54:40;97675.49;;;10.31;38.59
43480;BME280;29067;35.492;-97.520;2022-10-13T11:57:23;97679.90;;;10.36;37.93
43480;BME280;29067;35.492;-97.520;2022-10-13T11:59:53;97684.33;;;11.17;37.74
43480;BME280;29067;35.492;-97.520;2022-10-13T12:02:23;97686.68;;;10.77;37.36
43480;BME280;29067;35.492;-97.520;2022-10-13T12:05:03;97697.29;;;10.75;36.71
43480;BME280;29067;35.492;-97.520;2022-10-13T12:07:34;97699.69;;;10.54;36.72
43480;BME280;29067;35.492;-97.520;2022-10-13T12:10:06;97698.97;;;8.35;39.24
43480;BME280;29067;35.492;-97.520;2022-10-13T12:12:35;97704.73;;;8.67;39.21
43480;BME280;29067;35.492;-97.520;2022-10-13T12:15:27;97701.14;;;10.50;36.62
43480;BME280;29067;35.492;-97.520;2022-10-13T12:17:57;97700.29;;;10.40;37.44
43480;BME280;29067;35.492;-97.520;2022-10-13T12:20:27;97701.19;;;9.20;39.44
43480;BME280;29067;35.492;-97.520;2022-10-13T12:22:56;97701.06;;;10.89;37.66
43480;BME280;29067;35.492;-97.520;2022-10-13T12:25:27;97703.10;;;10.29;38.40
43480;BME280;29067;35.492;-97.520;2022-10-13T12:27:58;97711.22;;;9.47;39.45
43480;BME280;29067;35.492;-97.520;2022-10-13T12:30:28;97720.68;;;8.89;40.73
43480;BME280;29067;35.492;-97.520;2022-10-13T12:32:57;97718.69;;;9.93;38.58
43480;BME280;29067;35.492;-97.520;2022-10-13T12:35:27;97726.37;;;10.77;37.81
43480;BME280;29067;35.492;-97.520;2022-10-13T12:37:59;97724.37;;;11.28;36.85
43480;BME280;29067;35.492;-97.520;2022-10-13T12:40:28;97728.54;;;9.44;38.43
43480;BME280;29067;35.492;-97.520;2022-10-13T12:42:57;97730.46;;;8.85;38.24
43480;BME280;29067;35.492;-97.520;2022-10-13T12:45:32;97733.12;;;9.66;37.26
43480;BME280;29067;35.492;-97.520;2022-10-13T12:48:01;97734.90;;;9.26;38.61
43480;BME280;29067;35.492;-97.520;2022-10-13T12:50:35;97734.26;;;9.70;37.55
43480;BME280;29067;35.492;-97.520;2022-10-13T12:53:10;97732.86;;;9.00;38.68
43480;BME280;29067;35.492;-97.520;2022-10-13T12:55:56;97738.28;;;9.82;37.46
43480;BME280;29067;35.492;-97.520;2022-10-13T12:58:27;97740.70;;;10.05;37.48
43480;BME280;29067;35.492;-97.520;2022-10-13T13:01:05;97738.22;;;10.38;36.82
43480;BME280;29067;35.492;-97.520;2022-10-13T13:03:35;97738.38;;;10.97;36.81
43480;BME280;29067;35.492;-97.520;2022-10-13T13:06:20;97745.74;;;9.47;37.62